createdAt,value
2023-05-01T00:00:23.961Z,13.30
2023-05-01T00:02:50.656Z,13.39
2023-05-01T00:05:17.296Z,13.31
2023-05-01T00:07:43.884Z,13.16
2023-05-01T00:10:10.451Z,12.99
2023-05-01T00:12:37.047Z,13.11
2023-05-01T00:15:03.629Z,13.09
2023-05-01T00:17:30.228Z,13.15
2023-05-01T00:19:57.136Z,13.20
2023-05-01T00:22:23.914Z,13.01
2023-05-01T00:24:50.497Z,12.65
2023-05-01T00:27:17.083Z,12.66
2023-05-01T00:29:43.706Z,12.83
2023-05-01T00:32:10.695Z,12.99
2023-05-01T00:34:37.842Z,13.11
2023-05-01T00:37:04.440Z,13.02
2023-05-01T00:39:31.034Z,12.74
2023-05-01T00:41:57.587Z,12.58
2023-05-01T00:44:24.590Z,12.54
2023-05-01T00:46:51.223Z,12.67
2023-05-01T00:49:17.827Z,12.63
2023-05-01T00:51:44.432Z,12.66
2023-05-01T00:54:11.016Z,12.65
2023-05-01T00:56:37.624Z,12.58
2023-05-01T00:59:04.180Z,12.60
2023-05-01T01:01:30.831Z,12.55
2023-05-01T01:03:57.471Z,12.59
2023-05-01T01:06:24.186Z,12.58
2023-05-01T01:08:50.812Z,12.45
2023-05-01T01:11:17.400Z,12.58
2023-05-01T01:13:43.987Z,12.72
2023-05-01T01:16:10.539Z,12.53
2023-05-01T01:18:37.492Z,12.56
2023-05-01T01:21:04.637Z,12.27
2023-05-01T01:23:31.218Z,12.33
2023-05-01T01:25:57.820Z,12.42
2023-05-01T01:28:24.376Z,12.50
2023-05-01T01:30:50.980Z,12.23
2023-05-01T01:33:17.590Z,12.19
2023-05-01T01:35:44.228Z,12.33
2023-05-01T01:38:10.847Z,12.20
2023-05-01T01:40:37.444Z,12.32
2023-05-01T01:43:04.100Z,12.28
2023-05-01T01:45:30.667Z,12.43
2023-05-01T01:47:57.335Z,12.26
2023-05-01T01:50:23.944Z,12.16
2023-05-01T01:52:50.632Z,12.16
2023-05-01T01:55:17.253Z,12.21
2023-05-01T01:57:43.907Z,12.11
2023-05-01T02:00:10.505Z,12.10
2023-05-01T02:02:37.144Z,12.04
2023-05-01T02:05:03.755Z,11.88
2023-05-01T02:07:30.382Z,11.88
2023-05-01T02:09:57.181Z,11.92
2023-05-01T02:12:23.922Z,11.93
2023-05-01T02:14:50.519Z,12.03
2023-05-01T02:17:17.104Z,11.84
2023-05-01T02:19:43.705Z,12.03
2023-05-01T02:22:10.393Z,11.88
2023-05-01T02:24:37.019Z,11.92
2023-05-01T02:27:03.617Z,11.99
2023-05-01T02:29:30.181Z,11.91
2023-05-01T02:31:56.888Z,11.83
2023-05-01T02:34:23.575Z,11.94
2023-05-01T02:36:50.160Z,11.94
2023-05-01T02:39:16.720Z,11.93
2023-05-01T02:41:43.325Z,12.04
2023-05-01T02:44:09.951Z,12.06
2023-05-01T02:46:36.653Z,11.95
2023-05-01T02:49:03.294Z,12.02
2023-05-01T02:51:29.879Z,12.06
2023-05-01T02:53:56.486Z,11.89
2023-05-01T02:56:23.121Z,11.78
2023-05-01T02:58:49.682Z,11.92
2023-05-01T03:01:16.403Z,11.93
2023-05-01T03:03:43.083Z,11.92
2023-05-01T03:06:09.760Z,11.97
2023-05-01T03:08:36.362Z,11.77
2023-05-01T03:11:02.993Z,11.62
2023-05-01T03:13:29.670Z,11.59
2023-05-01T03:15:56.295Z,11.67
2023-05-01T03:18:22.968Z,11.70
2023-05-01T03:20:49.531Z,11.88
2023-05-01T03:23:16.146Z,12.01
2023-05-01T03:25:42.737Z,11.98
2023-05-01T03:28:09.334Z,12.10
2023-05-01T03:30:35.946Z,12.17
2023-05-01T03:33:02.668Z,12.16
2023-05-01T03:35:29.345Z,11.82
2023-05-01T03:37:56.068Z,11.89
2023-05-01T03:40:22.657Z,12.03
2023-05-01T03:42:49.242Z,12.32
2023-05-01T03:45:16.002Z,12.24
2023-05-01T03:47:42.656Z,12.44
2023-05-01T03:50:09.275Z,12.55
2023-05-01T03:52:35.860Z,12.45
2023-05-01T03:55:02.497Z,12.73
2023-05-01T03:57:29.063Z,12.62
2023-05-01T03:59:55.816Z,12.61
2023-05-01T04:02:22.711Z,12.58
2023-05-01T04:04:49.418Z,12.56
2023-05-01T04:07:16.054Z,12.72
2023-05-01T04:09:42.667Z,12.77
2023-05-01T04:12:09.354Z,12.89
2023-05-01T04:14:35.934Z,12.93
2023-05-01T04:17:02.560Z,13.06
2023-05-01T04:19:29.123Z,13.22
2023-05-01T04:21:55.731Z,13.27
2023-05-01T04:24:22.422Z,13.37
2023-05-01T04:26:49.115Z,13.30
2023-05-01T04:29:15.744Z,13.21
2023-05-01T04:31:42.401Z,13.33
2023-05-01T04:34:09.009Z,13.55
2023-05-01T04:36:35.598Z,13.52
2023-05-01T04:39:02.339Z,13.44
2023-05-01T04:41:28.944Z,13.53
2023-05-01T04:43:55.548Z,13.36
2023-05-01T04:46:22.201Z,13.53
2023-05-01T04:48:48.813Z,13.63
2023-05-01T04:51:15.437Z,13.70
2023-05-01T04:53:42.023Z,13.68
2023-05-01T04:56:08.607Z,13.81
2023-05-01T04:58:35.206Z,13.91
2023-05-01T05:01:01.999Z,13.93
2023-05-01T05:03:28.762Z,13.84
2023-05-01T05:05:55.349Z,13.90
2023-05-01T05:08:21.904Z,13.99
2023-05-01T05:10:48.547Z,14.13
2023-05-01T05:13:15.214Z,14.26
2023-05-01T05:15:41.982Z,14.12
2023-05-01T05:18:08.733Z,14.23
2023-05-01T05:20:36.048Z,14.25
2023-05-01T05:23:02.953Z,14.17
2023-05-01T05:25:29.582Z,14.25
2023-05-01T05:27:56.474Z,14.32
2023-05-01T05:30:23.218Z,14.41
2023-05-01T05:32:49.893Z,14.58
2023-05-01T05:35:16.549Z,14.58
2023-05-01T05:37:45.369Z,14.45
2023-05-01T05:40:12.723Z,14.57
2023-05-01T05:42:39.417Z,14.50
2023-05-01T05:45:06.053Z,14.56
2023-05-01T05:47:32.694Z,14.54
2023-05-01T05:49:59.499Z,14.78
2023-05-01T05:52:26.164Z,14.97
2023-05-01T05:54:52.943Z,15.03
2023-05-01T05:57:19.509Z,15.17
2023-05-01T05:59:46.118Z,15.23
2023-05-01T06:02:12.760Z,15.25
2023-05-01T06:04:39.406Z,15.35
2023-05-01T06:07:05.967Z,15.36
2023-05-01T06:09:32.593Z,15.52
2023-05-01T06:11:59.234Z,15.48
2023-05-01T06:14:25.823Z,15.70
2023-05-01T06:16:53.465Z,15.82
2023-05-01T06:19:20.060Z,16.12
2023-05-01T06:21:46.656Z,16.04
2023-05-01T06:24:13.267Z,15.77
2023-05-01T06:26:39.852Z,16.25
2023-05-01T06:29:06.414Z,16.64
2023-05-01T06:31:33.066Z,16.92
2023-05-01T06:33:59.673Z,17.37
2023-05-01T06:36:26.426Z,17.65
2023-05-01T06:38:55.323Z,18.23
2023-05-01T06:41:21.933Z,17.86
2023-05-01T06:43:48.680Z,18.33
2023-05-01T06:46:15.377Z,18.59
2023-05-01T06:48:41.998Z,18.75
2023-05-01T06:51:08.619Z,18.88
2023-05-01T06:53:35.194Z,18.93
2023-05-01T06:56:01.793Z,18.89
2023-05-01T06:58:28.359Z,18.98
2023-05-01T07:00:55.095Z,18.26
2023-05-01T07:03:22.731Z,17.84
2023-05-01T07:05:49.364Z,18.12
2023-05-01T07:08:16.043Z,17.75
2023-05-01T07:10:42.715Z,18.23
2023-05-01T07:13:09.368Z,18.80
2023-05-01T07:15:36.068Z,18.88
2023-05-01T07:18:02.679Z,19.20
2023-05-01T07:20:29.282Z,19.20
2023-05-01T07:22:55.872Z,19.31
2023-05-01T07:25:22.554Z,19.30
2023-05-01T07:27:49.165Z,19.61
2023-05-01T07:30:15.944Z,19.22
2023-05-01T07:32:42.623Z,19.22
2023-05-01T07:35:09.254Z,19.76
2023-05-01T07:37:35.867Z,20.37
2023-05-01T07:40:02.490Z,20.74
2023-05-01T07:42:29.397Z,20.44
2023-05-01T07:44:55.958Z,21.03
2023-05-01T07:47:22.561Z,20.58
2023-05-01T07:49:49.327Z,20.18
2023-05-01T07:52:15.978Z,19.83
2023-05-01T07:54:42.597Z,20.54
2023-05-01T07:57:09.517Z,20.98
2023-05-01T07:59:36.083Z,21.13
2023-05-01T08:02:02.680Z,21.27
2023-05-01T08:04:29.509Z,21.01
2023-05-01T08:06:56.377Z,21.22
2023-05-01T08:09:23.060Z,21.53
2023-05-01T08:11:49.794Z,21.24
2023-05-01T08:14:16.386Z,21.31
2023-05-01T08:16:42.988Z,20.19
2023-05-01T08:19:09.648Z,20.96
2023-05-01T08:21:36.204Z,21.45
2023-05-01T08:24:02.804Z,20.85
2023-05-01T08:26:29.393Z,21.05
2023-05-01T08:28:55.985Z,20.52
2023-05-01T08:31:23.731Z,20.37
2023-05-01T08:33:50.331Z,20.92
2023-05-01T08:36:17.807Z,21.28
2023-05-01T08:38:45.431Z,21.96
2023-05-01T08:41:12.026Z,21.05
2023-05-01T08:43:38.617Z,21.56
2023-05-01T08:46:05.261Z,21.87
2023-05-01T08:48:31.961Z,21.51
2023-05-01T08:50:58.536Z,21.32
2023-05-01T08:53:25.164Z,21.87
2023-05-01T08:55:51.784Z,22.01
2023-05-01T08:58:18.456Z,22.44
2023-05-01T09:00:45.023Z,22.55
2023-05-01T09:03:11.696Z,21.77
2023-05-01T09:05:38.304Z,21.99
2023-05-01T09:08:04.889Z,21.39
2023-05-01T09:10:33.012Z,21.82
2023-05-01T09:12:59.670Z,22.96
2023-05-01T09:15:26.318Z,23.48
2023-05-01T09:17:53.042Z,23.63
2023-05-01T09:20:19.779Z,23.67
2023-05-01T09:22:46.513Z,22.55
2023-05-01T09:25:13.164Z,21.27
2023-05-01T09:27:39.760Z,20.90
2023-05-01T09:30:06.321Z,21.18
2023-05-01T09:32:33.016Z,21.14
2023-05-01T09:34:59.588Z,20.94
2023-05-01T09:37:26.151Z,20.84
2023-05-01T09:39:52.784Z,21.37
2023-05-01T09:42:19.363Z,22.43
2023-05-01T09:44:46.144Z,21.86
2023-05-01T09:47:12.740Z,21.65
2023-05-01T09:49:39.322Z,21.28
2023-05-01T09:52:05.896Z,21.91
2023-05-01T09:54:32.490Z,22.78
2023-05-01T09:56:59.092Z,22.82
2023-05-01T09:59:25.685Z,23.38
2023-05-01T10:01:52.477Z,23.58
2023-05-01T10:04:19.230Z,22.88
2023-05-01T10:06:46.012Z,23.17
2023-05-01T10:09:13.027Z,23.54
2023-05-01T10:11:39.664Z,23.75
2023-05-01T10:14:06.261Z,24.32
2023-05-01T10:16:32.857Z,23.52
2023-05-01T10:18:59.511Z,24.12
2023-05-01T10:21:26.248Z,24.02
2023-05-01T10:23:52.851Z,23.86
2023-05-01T10:26:19.437Z,24.30
2023-05-01T10:28:46.023Z,25.10
2023-05-01T10:31:12.660Z,24.93
2023-05-01T10:33:39.305Z,24.23
2023-05-01T10:36:05.924Z,23.99
2023-05-01T10:38:32.562Z,24.25
2023-05-01T10:40:59.152Z,23.90
2023-05-01T10:43:25.743Z,23.92
2023-05-01T10:45:52.362Z,23.87
2023-05-01T10:48:19.146Z,24.00
2023-05-01T10:50:45.711Z,23.65
2023-05-01T10:53:12.414Z,23.83
2023-05-01T10:55:39.017Z,24.19
2023-05-01T10:58:05.610Z,24.51
2023-05-01T11:00:32.264Z,24.13
2023-05-01T11:02:58.900Z,24.45
2023-05-01T11:05:37.995Z,24.25
2023-05-01T11:08:05.175Z,23.49
2023-05-01T11:10:31.737Z,22.73
2023-05-01T11:12:58.364Z,23.39
2023-05-01T11:15:24.953Z,24.03
2023-05-01T11:17:51.665Z,24.61
2023-05-01T11:20:18.276Z,24.45
2023-05-01T11:22:45.063Z,23.57
2023-05-01T11:25:11.821Z,24.48
2023-05-01T11:27:38.429Z,22.91
2023-05-01T11:30:05.215Z,23.18
2023-05-01T11:32:31.862Z,24.11
2023-05-01T11:34:58.674Z,24.42
2023-05-01T11:37:25.548Z,24.56
2023-05-01T11:39:52.207Z,24.87
2023-05-01T11:42:18.825Z,24.12
2023-05-01T11:44:45.421Z,23.53
2023-05-01T11:47:12.029Z,23.21
2023-05-01T11:49:38.671Z,24.09
2023-05-01T11:52:05.270Z,24.57
2023-05-01T11:54:31.993Z,24.78
2023-05-01T11:56:58.623Z,25.04
2023-05-01T11:59:25.191Z,25.25
2023-05-01T12:01:51.851Z,24.71
2023-05-01T12:04:18.575Z,24.91
2023-05-01T12:06:46.166Z,23.93
2023-05-01T12:09:12.869Z,24.63
2023-05-01T12:11:39.482Z,25.39
2023-05-01T12:14:06.146Z,24.88
2023-05-01T12:16:32.845Z,24.48
2023-05-01T12:18:59.480Z,23.37
2023-05-01T12:21:26.117Z,22.75
2023-05-01T12:23:52.814Z,22.23
2023-05-01T12:26:19.416Z,22.13
2023-05-01T12:28:46.045Z,22.04
2023-05-01T12:31:12.705Z,23.39
2023-05-01T12:33:39.377Z,23.28
2023-05-01T12:36:05.988Z,24.31
2023-05-01T12:38:32.569Z,23.82
2023-05-01T12:40:59.229Z,23.57
2023-05-01T12:43:25.876Z,22.80
2023-05-01T12:45:52.456Z,23.08
2023-05-01T12:48:19.157Z,23.10
2023-05-01T12:50:47.496Z,22.51
2023-05-01T12:53:14.738Z,22.24
2023-05-01T12:55:41.447Z,22.99
2023-05-01T12:58:08.026Z,23.91
2023-05-01T13:00:35.040Z,23.67
2023-05-01T13:03:01.713Z,24.36
2023-05-01T13:05:28.480Z,24.41
2023-05-01T13:07:55.108Z,23.80
2023-05-01T13:10:21.719Z,23.78
2023-05-01T13:12:48.362Z,24.59
2023-05-01T13:15:15.004Z,23.41
2023-05-01T13:17:41.674Z,24.11
2023-05-01T13:20:08.293Z,23.38
2023-05-01T13:22:35.019Z,23.26
2023-05-01T13:25:01.670Z,23.23
2023-05-01T13:27:28.261Z,23.28
2023-05-01T13:29:54.908Z,23.02
2023-05-01T13:32:21.584Z,22.81
2023-05-01T13:34:48.334Z,22.71
2023-05-01T13:37:14.936Z,22.04
2023-05-01T13:39:41.511Z,22.49
2023-05-01T13:42:08.129Z,23.00
2023-05-01T13:44:34.707Z,22.66
2023-05-01T13:47:01.328Z,23.03
2023-05-01T13:49:27.903Z,23.30
2023-05-01T13:51:54.508Z,22.70
2023-05-01T13:54:21.074Z,22.34
2023-05-01T13:56:47.703Z,22.27
2023-05-01T13:59:14.269Z,23.11
2023-05-01T14:01:40.926Z,23.96
2023-05-01T14:04:07.546Z,24.94
2023-05-01T14:06:34.164Z,25.59
2023-05-01T14:09:00.781Z,25.89
2023-05-01T14:11:27.392Z,25.53
2023-05-01T14:13:53.997Z,24.56
2023-05-01T14:16:20.614Z,24.95
2023-05-01T14:18:47.236Z,25.31
2023-05-01T14:21:13.836Z,25.45
2023-05-01T14:23:40.425Z,25.10
2023-05-01T14:26:06.987Z,24.05
2023-05-01T14:28:33.574Z,23.07
2023-05-01T14:31:00.368Z,23.18
2023-05-01T14:33:26.998Z,24.11
2023-05-01T14:35:53.822Z,24.38
2023-05-01T14:38:20.474Z,24.00
2023-05-01T14:40:47.086Z,23.90
2023-05-01T14:43:13.707Z,23.97
2023-05-01T14:45:40.297Z,23.74
2023-05-01T14:48:06.973Z,23.55
2023-05-01T14:50:33.581Z,23.28
2023-05-01T14:53:00.172Z,23.67
2023-05-01T14:55:26.732Z,23.97
2023-05-01T14:57:53.329Z,24.14
2023-05-01T15:00:20.029Z,23.70
2023-05-01T15:02:46.682Z,23.25
2023-05-01T15:05:13.457Z,23.18
2023-05-01T15:07:40.057Z,22.65
2023-05-01T15:10:06.643Z,23.00
2023-05-01T15:12:33.258Z,23.19
2023-05-01T15:15:00.004Z,22.29
2023-05-01T15:17:26.787Z,20.97
2023-05-01T15:19:53.518Z,21.25
2023-05-01T15:22:20.073Z,21.59
2023-05-01T15:24:46.699Z,22.21
2023-05-01T15:27:13.355Z,22.72
2023-05-01T15:29:39.934Z,23.34
2023-05-01T15:32:11.863Z,23.85
2023-05-01T15:34:39.214Z,23.98
2023-05-01T15:37:06.271Z,23.92
2023-05-01T15:39:32.939Z,24.14
2023-05-01T15:41:59.579Z,23.75
2023-05-01T15:44:26.299Z,23.65
2023-05-01T15:46:53.073Z,23.76
2023-05-01T15:49:19.722Z,24.21
2023-05-01T15:51:46.333Z,24.35
2023-05-01T15:54:12.901Z,23.72
2023-05-01T15:56:39.511Z,23.03
2023-05-01T15:59:06.061Z,22.81
2023-05-01T16:01:32.677Z,22.94
2023-05-01T16:03:59.318Z,23.18
2023-05-01T16:06:25.965Z,23.09
2023-05-01T16:08:52.564Z,22.80
2023-05-01T16:11:19.154Z,23.25
2023-05-01T16:13:45.750Z,23.25
2023-05-01T16:16:12.531Z,23.45
2023-05-01T16:18:39.153Z,22.84
2023-05-01T16:21:05.773Z,22.66
2023-05-01T16:23:32.420Z,22.46
2023-05-01T16:25:58.977Z,22.51
2023-05-01T16:28:25.584Z,22.67
2023-05-01T16:30:52.225Z,23.16
2023-05-01T16:33:19.459Z,23.11
2023-05-01T16:35:46.226Z,23.24
2023-05-01T16:38:12.810Z,22.43
2023-05-01T16:40:39.535Z,22.65
2023-05-01T16:43:06.180Z,22.37
2023-05-01T16:45:32.797Z,22.48
2023-05-01T16:47:59.498Z,22.32
2023-05-01T16:50:26.205Z,22.31
2023-05-01T16:52:52.771Z,21.95
2023-05-01T16:55:19.575Z,21.68
2023-05-01T16:57:46.229Z,21.80
2023-05-01T17:00:12.869Z,22.34
2023-05-01T17:02:39.496Z,22.28
2023-05-01T17:05:06.093Z,22.46
2023-05-01T17:07:32.702Z,22.53
2023-05-01T17:09:59.471Z,22.72
2023-05-01T17:12:26.291Z,22.65
2023-05-01T17:14:52.869Z,22.23
2023-05-01T17:17:19.498Z,22.50
2023-05-01T17:19:46.212Z,22.56
2023-05-01T17:22:12.795Z,22.81
2023-05-01T17:24:39.410Z,22.77
2023-05-01T17:27:05.970Z,22.84
2023-05-01T17:29:32.583Z,22.65
2023-05-01T17:31:59.307Z,22.60
2023-05-01T17:34:25.899Z,22.60
2023-05-01T17:36:52.519Z,22.25
2023-05-01T17:39:19.430Z,22.08
2023-05-01T17:41:46.077Z,22.18
2023-05-01T17:44:12.677Z,22.19
2023-05-01T17:46:39.306Z,22.27
2023-05-01T17:49:05.934Z,22.40
2023-05-01T17:51:32.577Z,22.33
2023-05-01T17:54:02.200Z,22.37
2023-05-01T17:56:28.838Z,22.30
2023-05-01T17:58:55.405Z,22.19
2023-05-01T18:01:22.041Z,21.90
2023-05-01T18:03:49.056Z,21.77
2023-05-01T18:06:16.514Z,21.82
2023-05-01T18:08:43.196Z,21.80
2023-05-01T18:11:09.771Z,21.68
2023-05-01T18:13:36.385Z,21.52
2023-05-01T18:16:02.962Z,21.51
2023-05-01T18:18:29.561Z,21.36
2023-05-01T18:20:56.165Z,21.42
2023-05-01T18:23:22.739Z,21.46
2023-05-01T18:25:49.350Z,21.42
2023-05-01T18:28:15.917Z,21.51
2023-05-01T18:30:42.521Z,21.37
2023-05-01T18:33:09.123Z,21.29
2023-05-01T18:35:35.748Z,21.23
2023-05-01T18:38:02.364Z,21.07
2023-05-01T18:40:28.967Z,21.10
2023-05-01T18:42:55.741Z,21.01
2023-05-01T18:45:22.338Z,21.02
2023-05-01T18:47:49.007Z,20.76
2023-05-01T18:50:15.657Z,20.71
2023-05-01T18:52:42.278Z,20.98
2023-05-01T18:55:08.868Z,20.93
2023-05-01T18:57:35.439Z,20.93
2023-05-01T19:00:02.276Z,20.90
2023-05-01T19:02:29.263Z,20.87
2023-05-01T19:04:57.749Z,20.71
2023-05-01T19:07:24.802Z,20.54
2023-05-01T19:09:51.392Z,20.61
2023-05-01T19:12:18.029Z,20.60
2023-05-01T19:14:44.650Z,20.70
2023-05-01T19:17:11.287Z,20.87
2023-05-01T19:19:37.854Z,20.80
2023-05-01T19:22:04.666Z,20.79
2023-05-01T19:24:31.266Z,20.81
2023-05-01T19:26:57.870Z,20.81
2023-05-01T19:29:24.510Z,20.73
2023-05-01T19:31:51.146Z,20.71
2023-05-01T19:34:17.754Z,20.76
2023-05-01T19:36:44.318Z,20.64
2023-05-01T19:39:10.906Z,20.60
2023-05-01T19:41:37.692Z,20.48
2023-05-01T19:44:04.288Z,20.48
2023-05-01T19:46:30.957Z,20.66
2023-05-01T19:48:57.549Z,20.67
2023-05-01T19:51:24.233Z,20.72
2023-05-01T19:53:51.009Z,20.72
2023-05-01T19:56:17.605Z,20.71
2023-05-01T19:58:46.518Z,20.81
2023-05-01T20:01:13.180Z,20.83
2023-05-01T20:03:39.899Z,20.78
2023-05-01T20:06:06.618Z,20.60
2023-05-01T20:08:33.275Z,20.67
2023-05-01T20:10:59.868Z,20.68
2023-05-01T20:13:26.456Z,20.60
2023-05-01T20:15:53.142Z,20.52
2023-05-01T20:18:19.751Z,20.52
2023-05-01T20:20:46.310Z,20.38
2023-05-01T20:23:13.016Z,20.52
2023-05-01T20:25:39.609Z,20.34
2023-05-01T20:28:06.188Z,20.32
2023-05-01T20:30:32.815Z,20.20
2023-05-01T20:32:59.547Z,20.20
2023-05-01T20:35:26.150Z,19.98
2023-05-01T20:37:52.728Z,19.90
2023-05-01T20:40:19.521Z,19.94
2023-05-01T20:42:46.236Z,20.00
2023-05-01T20:45:12.854Z,20.04
2023-05-01T20:47:39.564Z,20.08
2023-05-01T20:50:06.194Z,20.08
2023-05-01T20:52:32.868Z,20.06
2023-05-01T20:54:59.468Z,19.85
2023-05-01T20:57:26.060Z,19.90
2023-05-01T20:59:52.622Z,20.01
2023-05-01T21:02:19.245Z,20.08
2023-05-01T21:04:45.827Z,19.97
2023-05-01T21:07:12.449Z,20.08
2023-05-01T21:09:40.048Z,19.98
2023-05-01T21:12:06.665Z,19.89
2023-05-01T21:14:33.218Z,19.96
2023-05-01T21:16:59.844Z,19.89
2023-05-01T21:19:26.574Z,19.71
2023-05-01T21:21:54.880Z,19.76
2023-05-01T21:24:21.878Z,19.79
2023-05-01T21:26:48.912Z,19.86
2023-05-01T21:29:15.541Z,19.83
2023-05-01T21:31:42.246Z,19.83
2023-05-01T21:34:08.817Z,19.87
2023-05-01T21:36:35.410Z,19.99
2023-05-01T21:39:02.032Z,19.89
2023-05-01T21:41:28.617Z,19.92
2023-05-01T21:43:55.393Z,19.95
2023-05-01T21:46:21.988Z,20.00
2023-05-01T21:48:48.582Z,20.04
2023-05-01T21:51:15.209Z,20.04
2023-05-01T21:53:41.850Z,20.01
2023-05-01T21:56:08.733Z,19.94
2023-05-01T21:58:35.337Z,19.91
2023-05-01T22:01:01.975Z,19.92
2023-05-01T22:03:28.763Z,19.90
2023-05-01T22:05:55.388Z,19.93
2023-05-01T22:08:22.024Z,19.94
2023-05-01T22:10:48.584Z,19.85
2023-05-01T22:13:16.511Z,19.80
2023-05-01T22:15:43.094Z,19.49
2023-05-01T22:18:09.673Z,19.53
2023-05-01T22:20:36.631Z,19.56
2023-05-01T22:23:03.203Z,19.63
2023-05-01T22:25:29.803Z,19.62
2023-05-01T22:27:56.446Z,19.60
2023-05-01T22:30:23.060Z,19.65
2023-05-01T22:32:49.713Z,19.68
2023-05-01T22:35:16.374Z,19.57
2023-05-01T22:37:42.940Z,19.54
2023-05-01T22:40:09.557Z,19.25
2023-05-01T22:42:36.191Z,19.25
2023-05-01T22:45:02.857Z,19.44
2023-05-01T22:47:29.503Z,19.39
2023-05-01T22:49:56.149Z,19.45
2023-05-01T22:52:22.733Z,19.52
2023-05-01T22:54:49.360Z,19.54
2023-05-01T22:57:15.942Z,19.53
2023-05-01T22:59:42.512Z,19.48
2023-05-01T23:02:09.358Z,19.40
2023-05-01T23:04:36.074Z,19.47
2023-05-01T23:07:02.630Z,19.47
2023-05-01T23:09:29.623Z,19.33
2023-05-01T23:11:56.226Z,19.29
2023-05-01T23:14:22.813Z,19.32
2023-05-01T23:16:49.396Z,19.27
2023-05-01T23:19:16.158Z,19.27
2023-05-01T23:21:42.792Z,19.22
2023-05-01T23:24:09.400Z,19.03
2023-05-01T23:26:36.162Z,18.99
2023-05-01T23:29:02.751Z,18.85
2023-05-01T23:34:13.355Z,19.03
2023-05-01T23:36:39.964Z,18.97
2023-05-01T23:39:06.538Z,18.90
2023-05-01T23:41:33.131Z,18.97
2023-05-01T23:43:59.687Z,19.06
2023-05-01T23:46:26.281Z,19.08
2023-05-01T23:48:52.860Z,19.10
2023-05-01T23:51:19.420Z,19.00
2023-05-01T23:53:45.998Z,19.01
2023-05-01T23:56:12.739Z,19.06
2023-05-01T23:58:39.339Z,18.98
